Time;durP1;ratioP1;P1;durP2;ratioP2;P2;SDS_P1;SDS_P2;PMS_P1;PMS_P2;Temp;Humidity;BMP_temperature;BMP_pressure;BME280_temperature;BME280_humidity;BME280_pressure;Samples;Min_cycle;Max_cycle;Signal;HPM_P1;HPM_P2
2021/12/16 00:06:59;;;;;;;0.55;0.13;;;;;;;;;;4989988;28;20022;-67
2021/12/16 00:09:27;;;;;;;0.25;0.10;;;;;;;;;;4990805;28;20436;-67
2021/12/16 00:33:39;;;;;;;0.40;0.20;;;;;;;;;;4990419;28;20039;-68
2021/12/16 00:36:05;;;;;;;0.50;0.10;;;;;;;;;;5006440;28;20034;-67
2021/12/16 00:38:30;;;;;;;0.93;0.50;;;;;;;;;;5012394;28;20025;-67
2021/12/16 00:40:56;;;;;;;1.02;0.20;;;;;;;;;;5012519;28;20017;-66
2021/12/16 00:43:34;;;;;;;0.82;0.20;;;;;;;;;;5012763;28;20450;-67
2021/12/16 00:54:14;;;;;;;0.55;0.20;;;;;;;;;;5012768;28;20064;-68
2021/12/16 00:56:55;;;;;;;0.20;0.10;;;;;;;;;;5020563;28;20022;-67
2021/12/16 00:59:21;;;;;;;1.05;0.22;;;;;;;;;;5012337;28;20097;-68
2021/12/16 01:02:09;;;;;;;1.35;0.20;;;;;;;;;;5012336;28;20113;-68
2021/12/16 01:07:19;;;;;;;0.00;0.00;;;;;;;;;;5012655;28;20018;-69
2021/12/16 01:37:51;;;;;;;0.90;0.27;;;;;;;;;;4996265;28;20272;-68
2021/12/16 01:42:25;;;;;;;0.57;0.20;;;;;;;;;;4996170;28;20389;-67
2021/12/16 01:50:16;;;;;;;0.60;0.30;;;;;;;;;;4996180;28;20022;-68
2021/12/16 01:57:42;;;;;;;0.45;0.20;;;;;;;;;;4995382;28;20029;-68
2021/12/16 02:00:11;;;;;;;2.03;0.17;;;;;;;;;;5010423;28;20359;-68
2021/12/16 02:02:49;;;;;;;0.80;0.30;;;;;;;;;;5021088;23;20049;-68
2021/12/16 02:05:31;;;;;;;0.60;0.35;;;;;;;;;;5054813;28;20045;-69
2021/12/16 02:10:29;;;;;;;2.67;0.50;;;;;;;;;;5054661;28;20025;-68
2021/12/16 02:13:16;;;;;;;0.43;0.10;;;;;;;;;;5054643;28;20062;-68
2021/12/16 02:29:51;;;;;;;1.20;0.27;;;;;;;;;;5053533;28;20036;-67
2021/12/16 02:35:00;;;;;;;0.40;0.20;;;;;;;;;;5054090;28;20044;-67
2021/12/16 02:37:29;;;;;;;0.50;0.30;;;;;;;;;;5054114;28;20028;-67
2021/12/16 02:39:54;;;;;;;1.15;0.30;;;;;;;;;;5054170;28;20021;-67
2021/12/16 02:42:23;;;;;;;0.63;0.15;;;;;;;;;;5053987;28;20143;-67
2021/12/16 02:50:33;;;;;;;0.27;0.13;;;;;;;;;;4972652;28;20069;-67
2021/12/16 02:52:58;;;;;;;0.83;0.20;;;;;;;;;;4972911;28;20023;-67
2021/12/16 02:55:23;;;;;;;0.23;0.10;;;;;;;;;;4972654;28;20636;-66
2021/12/16 02:57:59;;;;;;;0.60;0.10;;;;;;;;;;4972742;28;20065;-68
2021/12/16 03:00:26;;;;;;;1.10;0.20;;;;;;;;;;4972459;28;20625;-67
2021/12/16 03:02:51;;;;;;;1.35;0.47;;;;;;;;;;4972408;28;20074;-68
2021/12/16 03:05:19;;;;;;;0.10;0.10;;;;;;;;;;4972659;28;20061;-68
2021/12/16 03:07:44;;;;;;;0.57;0.13;;;;;;;;;;4972328;28;20039;-69
2021/12/16 03:10:55;;;;;;;0.15;0.05;;;;;;;;;;4972386;28;20078;-68
2021/12/16 03:13:20;;;;;;;0.30;0.20;;;;;;;;;;4972185;28;20033;-68
2021/12/16 03:20:46;;;;;;;0.35;0.20;;;;;;;;;;4986901;28;20025;-68
2021/12/16 03:31:02;;;;;;;0.93;0.32;;;;;;;;;;5033417;28;20116;-68
2021/12/16 03:33:53;;;;;;;1.30;0.10;;;;;;;;;;5031868;28;20028;-68
2021/12/16 03:38:51;;;;;;;0.32;0.20;;;;;;;;;;5033432;28;20018;-68
2021/12/16 03:41:16;;;;;;;0.90;0.20;;;;;;;;;;5033050;28;20053;-68
2021/12/16 03:43:42;;;;;;;0.68;0.10;;;;;;;;;;5032850;28;20053;-68
2021/12/16 03:48:49;;;;;;;0.43;0.20;;;;;;;;;;5033109;28;20022;-68
2021/12/16 03:51:14;;;;;;;0.55;0.20;;;;;;;;;;5032957;28;20065;-68
2021/12/16 03:53:42;;;;;;;0.43;0.10;;;;;;;;;;5032704;28;20052;-68
2021/12/16 03:56:08;;;;;;;0.63;0.00;;;;;;;;;;5032619;28;20560;-67
2021/12/16 03:58:33;;;;;;;0.77;0.20;;;;;;;;;;5032420;28;20041;-67
2021/12/16 04:01:01;;;;;;;0.82;0.20;;;;;;;;;;5032800;28;20022;-67
2021/12/16 04:03:26;;;;;;;0.22;0.10;;;;;;;;;;5032399;28;20053;-69
2021/12/16 04:05:52;;;;;;;1.48;0.13;;;;;;;;;;5032632;28;20543;-68
2021/12/16 04:08:17;;;;;;;0.30;0.10;;;;;;;;;;5032426;28;20057;-67
2021/12/16 04:10:47;;;;;;;0.67;0.30;;;;;;;;;;5032496;28;20025;-68
2021/12/16 04:13:15;;;;;;;0.52;0.30;;;;;;;;;;5032531;28;20246;-68
2021/12/16 04:15:41;;;;;;;0.65;0.20;;;;;;;;;;5031341;28;20024;-68
2021/12/16 04:18:06;;;;;;;1.17;0.20;;;;;;;;;;5032270;28;20403;-68
2021/12/16 04:20:31;;;;;;;0.75;0.30;;;;;;;;;;5032176;28;20022;-68
2021/12/16 04:22:57;;;;;;;0.52;0.08;;;;;;;;;;5032540;28;20029;-68
2021/12/16 04:25:30;;;;;;;0.47;0.20;;;;;;;;;;5032330;28;20475;-68
2021/12/16 04:27:57;;;;;;;0.50;0.13;;;;;;;;;;5032507;28;20025;-69
2021/12/16 04:30:23;;;;;;;0.25;0.17;;;;;;;;;;5031998;28;20021;-68
2021/12/16 04:32:48;;;;;;;0.77;0.20;;;;;;;;;;5032234;28;20457;-69
2021/12/16 04:35:14;;;;;;;1.30;0.10;;;;;;;;;;5032551;28;20025;-69
2021/12/16 04:37:40;;;;;;;0.20;0.13;;;;;;;;;;5031118;28;20263;-68
2021/12/16 04:40:08;;;;;;;0.20;0.00;;;;;;;;;;5030981;28;20032;-68
2021/12/16 04:42:35;;;;;;;0.40;0.13;;;;;;;;;;5032088;28;20021;-67
2021/12/16 04:45:00;;;;;;;0.43;0.10;;;;;;;;;;5032326;28;20014;-68
2021/12/16 04:47:28;;;;;;;0.95;0.20;;;;;;;;;;5032002;28;20472;-68
2021/12/16 04:49:53;;;;;;;0.20;0.10;;;;;;;;;;5014748;28;20469;-69
2021/12/16 04:52:18;;;;;;;0.70;0.20;;;;;;;;;;5033408;28;20125;-68
2021/12/16 04:54:45;;;;;;;0.52;0.08;;;;;;;;;;5036044;28;20246;-68
2021/12/16 04:57:10;;;;;;;1.35;0.28;;;;;;;;;;5035935;28;20053;-68
2021/12/16 04:59:36;;;;;;;1.00;0.20;;;;;;;;;;5035902;28;20103;-68
2021/12/16 05:02:05;;;;;;;0.95;0.13;;;;;;;;;;5036016;28;20065;-68
2021/12/16 05:04:30;;;;;;;0.28;0.10;;;;;;;;;;5035900;28;20013;-68
2021/12/16 05:06:55;;;;;;;0.73;0.20;;;;;;;;;;5035939;28;20476;-68
2021/12/16 05:12:06;;;;;;;0.22;0.10;;;;;;;;;;5035763;28;20095;-68
2021/12/16 05:14:31;;;;;;;1.02;0.50;;;;;;;;;;5035731;28;20021;-68
2021/12/16 05:16:57;;;;;;;0.75;0.28;;;;;;;;;;5035711;28;20113;-68
2021/12/16 05:19:23;;;;;;;0.50;0.05;;;;;;;;;;5034727;28;20028;-69
2021/12/16 05:21:55;;;;;;;1.20;0.10;;;;;;;;;;5035618;28;20017;-68
2021/12/16 05:24:26;;;;;;;0.10;0.08;;;;;;;;;;5035446;28;20049;-68
2021/12/16 05:26:59;;;;;;;0.15;0.10;;;;;;;;;;5035600;28;20431;-68
2021/12/16 05:29:24;;;;;;;0.25;0.15;;;;;;;;;;5035488;28;20493;-68
2021/12/16 05:31:50;;;;;;;0.17;0.10;;;;;;;;;;5035458;28;20032;-67
2021/12/16 05:34:15;;;;;;;1.00;0.13;;;;;;;;;;5035638;28;20255;-68
2021/12/16 05:36:40;;;;;;;0.20;0.00;;;;;;;;;;5035284;28;20071;-68
2021/12/16 05:39:06;;;;;;;0.20;0.10;;;;;;;;;;5035363;28;20029;-67
2021/12/16 05:41:31;;;;;;;0.63;0.15;;;;;;;;;;5035238;28;20253;-66
2021/12/16 05:43:57;;;;;;;0.45;0.10;;;;;;;;;;5035493;28;20083;-67
2021/12/16 05:46:23;;;;;;;0.52;0.10;;;;;;;;;;5035135;28;20041;-68
2021/12/16 05:48:49;;;;;;;1.02;0.20;;;;;;;;;;5035067;28;20028;-68
2021/12/16 05:51:16;;;;;;;0.47;0.10;;;;;;;;;;5035287;28;20025;-68
2021/12/16 05:53:42;;;;;;;0.63;0.10;;;;;;;;;;5034997;28;20115;-67
2021/12/16 05:56:08;;;;;;;0.20;0.10;;;;;;;;;;5034797;28;20488;-68
2021/12/16 05:58:34;;;;;;;0.68;0.38;;;;;;;;;;5034830;28;20105;-69
2021/12/16 06:01:01;;;;;;;1.05;0.10;;;;;;;;;;5035071;28;20040;-68
2021/12/16 06:03:26;;;;;;;0.22;0.10;;;;;;;;;;5033424;28;20458;-68
2021/12/16 06:05:52;;;;;;;0.33;0.10;;;;;;;;;;5034763;28;20527;-68
2021/12/16 06:08:17;;;;;;;0.82;0.30;;;;;;;;;;5034700;28;20422;-68
2021/12/16 06:13:22;;;;;;;1.33;0.20;;;;;;;;;;5034749;28;20098;-67
2021/12/16 06:26:35;;;;;;;1.20;0.28;;;;;;;;;;5034321;28;20040;-68
2021/12/16 06:29:01;;;;;;;0.40;0.10;;;;;;;;;;5034600;28;20017;-67
2021/12/16 06:31:26;;;;;;;0.75;0.22;;;;;;;;;;5034202;28;20024;-68
2021/12/16 06:33:51;;;;;;;0.70;0.17;;;;;;;;;;5034352;28;20029;-67
2021/12/16 06:36:17;;;;;;;0.20;0.10;;;;;;;;;;5034167;28;20072;-67
2021/12/16 06:38:42;;;;;;;0.00;0.00;;;;;;;;;;5034157;28;20014;-67
2021/12/16 06:41:07;;;;;;;0.22;0.20;;;;;;;;;;5034246;28;20151;-67
2021/12/16 06:43:34;;;;;;;0.95;0.20;;;;;;;;;;5034013;28;20018;-67
2021/12/16 06:46:01;;;;;;;0.80;0.15;;;;;;;;;;5034199;28;20018;-67
2021/12/16 06:48:31;;;;;;;0.25;0.00;;;;;;;;;;5033899;28;20063;-68
2021/12/16 06:51:01;;;;;;;0.13;0.10;;;;;;;;;;5034103;28;20052;-68
2021/12/16 06:53:43;;;;;;;0.10;0.10;;;;;;;;;;5033926;28;20037;-67
2021/12/16 06:56:15;;;;;;;0.10;0.00;;;;;;;;;;5033773;28;20064;-68
2021/12/16 06:59:02;;;;;;;0.43;0.10;;;;;;;;;;5033758;28;20032;-68
2021/12/16 07:04:02;;;;;;;0.10;0.10;;;;;;;;;;5033793;28;20077;-68
2021/12/16 07:06:28;;;;;;;0.90;0.13;;;;;;;;;;5033476;28;20106;-68
2021/12/16 07:08:56;;;;;;;1.08;0.28;;;;;;;;;;5033682;28;20036;-69
2021/12/16 07:11:21;;;;;;;0.82;0.30;;;;;;;;;;5033569;28;20044;-68
2021/12/16 07:13:56;;;;;;;1.20;0.15;;;;;;;;;;5033503;28;20033;-68
2021/12/16 07:16:22;;;;;;;0.40;0.25;;;;;;;;;;5031817;28;20017;-68
2021/12/16 07:18:47;;;;;;;0.55;0.17;;;;;;;;;;5031631;28;20024;-68
2021/12/16 07:21:12;;;;;;;0.20;0.00;;;;;;;;;;5032168;28;20423;-68
2021/12/16 07:23:37;;;;;;;0.75;0.10;;;;;;;;;;5033083;28;20025;-67
2021/12/16 07:26:03;;;;;;;0.47;0.10;;;;;;;;;;5033321;28;20044;-67
2021/12/16 07:28:28;;;;;;;0.47;0.17;;;;;;;;;;5015320;28;20060;-67
2021/12/16 07:30:54;;;;;;;0.10;0.10;;;;;;;;;;5033208;28;20049;-68
2021/12/16 07:33:19;;;;;;;0.95;0.20;;;;;;;;;;5022827;28;20021;-67
2021/12/16 07:35:45;;;;;;;0.43;0.10;;;;;;;;;;5011929;28;20022;-66
2021/12/16 07:38:10;;;;;;;0.77;0.20;;;;;;;;;;5013243;28;20101;-67
2021/12/16 07:40:36;;;;;;;0.15;0.10;;;;;;;;;;5012942;28;20029;-68
2021/12/16 07:45:41;;;;;;;0.10;0.00;;;;;;;;;;5038408;23;20543;-68
2021/12/16 07:48:07;;;;;;;0.80;0.10;;;;;;;;;;5051427;28;20478;-69
2021/12/16 07:50:33;;;;;;;0.35;0.10;;;;;;;;;;5051640;28;20104;-68
2021/12/16 07:52:58;;;;;;;0.88;0.13;;;;;;;;;;5052905;28;20049;-68
2021/12/16 07:55:23;;;;;;;0.30;0.28;;;;;;;;;;5052600;28;20044;-68
2021/12/16 07:57:49;;;;;;;0.17;0.10;;;;;;;;;;5049236;28;20404;-68
2021/12/16 08:00:17;;;;;;;0.13;0.10;;;;;;;;;;5031606;28;20270;-68
2021/12/16 08:02:43;;;;;;;0.20;0.10;;;;;;;;;;5031721;28;20023;-68
2021/12/16 08:05:09;;;;;;;1.80;0.50;;;;;;;;;;5022363;28;20100;-68
2021/12/16 08:07:35;;;;;;;0.70;0.43;;;;;;;;;;5031372;28;20013;-68
2021/12/16 08:10:00;;;;;;;0.40;0.13;;;;;;;;;;5035194;28;20029;-68
2021/12/16 08:12:25;;;;;;;0.52;0.10;;;;;;;;;;5040994;28;20420;-68
2021/12/16 08:14:51;;;;;;;1.43;0.47;;;;;;;;;;5042611;28;20134;-68
2021/12/16 08:17:16;;;;;;;0.30;0.30;;;;;;;;;;5031560;28;20275;-68
2021/12/16 08:19:42;;;;;;;0.57;0.30;;;;;;;;;;5032303;28;20013;-68
2021/12/16 08:22:07;;;;;;;0.50;0.20;;;;;;;;;;5024637;28;20033;-68
2021/12/16 08:24:33;;;;;;;0.50;0.10;;;;;;;;;;5030461;28;20022;-68
2021/12/16 08:26:58;;;;;;;0.15;0.10;;;;;;;;;;5030016;28;20022;-68
2021/12/16 08:29:24;;;;;;;0.13;0.10;;;;;;;;;;5031665;28;20100;-68
2021/12/16 08:31:50;;;;;;;0.35;0.00;;;;;;;;;;5031267;28;20526;-68
2021/12/16 08:34:16;;;;;;;0.40;0.10;;;;;;;;;;5031451;28;20022;-68
2021/12/16 08:36:41;;;;;;;0.25;0.10;;;;;;;;;;5030658;28;21524;-68
2021/12/16 08:39:08;;;;;;;0.47;0.05;;;;;;;;;;5030952;28;20057;-67
2021/12/16 08:41:36;;;;;;;0.65;0.20;;;;;;;;;;5033232;28;20025;-68
2021/12/16 08:44:02;;;;;;;0.10;0.10;;;;;;;;;;5052176;28;20017;-67
2021/12/16 08:46:28;;;;;;;0.00;0.00;;;;;;;;;;5028020;28;20048;-68
2021/12/16 08:48:53;;;;;;;0.43;0.20;;;;;;;;;;5031178;28;20021;-67
2021/12/16 08:51:21;;;;;;;0.82;0.13;;;;;;;;;;5039650;28;20070;-67
2021/12/16 08:53:46;;;;;;;0.73;0.32;;;;;;;;;;5051963;28;20025;-67
2021/12/16 08:56:13;;;;;;;0.75;0.10;;;;;;;;;;5037044;28;20380;-67
2021/12/16 08:58:38;;;;;;;0.57;0.17;;;;;;;;;;5031247;28;20096;-68
2021/12/16 09:01:06;;;;;;;0.55;0.25;;;;;;;;;;5030545;28;20096;-68
2021/12/16 09:03:31;;;;;;;1.67;0.30;;;;;;;;;;5030225;28;20017;-68
2021/12/16 09:05:57;;;;;;;0.32;0.05;;;;;;;;;;5029995;28;20029;-68
2021/12/16 09:08:22;;;;;;;1.70;0.15;;;;;;;;;;5030784;28;20032;-68
2021/12/16 09:10:48;;;;;;;0.22;0.13;;;;;;;;;;5031940;28;20025;-68
2021/12/16 09:13:15;;;;;;;0.90;0.17;;;;;;;;;;5031625;28;20325;-68
2021/12/16 09:15:44;;;;;;;0.15;0.10;;;;;;;;;;5032452;28;20030;-68
2021/12/16 09:18:11;;;;;;;0.28;0.15;;;;;;;;;;5054526;28;20025;-67
2021/12/16 09:20:37;;;;;;;0.50;0.10;;;;;;;;;;5051598;28;20017;-68
2021/12/16 09:23:03;;;;;;;0.57;0.00;;;;;;;;;;5050127;28;20017;-68
2021/12/16 09:25:28;;;;;;;0.05;0.00;;;;;;;;;;5049892;28;20513;-68
2021/12/16 09:27:54;;;;;;;0.32;0.10;;;;;;;;;;5051488;28;20032;-68
2021/12/16 09:30:21;;;;;;;0.20;0.10;;;;;;;;;;5041455;28;20025;-67
2021/12/16 09:32:46;;;;;;;0.73;0.20;;;;;;;;;;5031667;28;20105;-67
2021/12/16 09:35:12;;;;;;;1.17;0.40;;;;;;;;;;5031623;28;20108;-67
2021/12/16 09:37:38;;;;;;;0.60;0.10;;;;;;;;;;5031816;28;20096;-67
2021/12/16 09:40:05;;;;;;;0.20;0.10;;;;;;;;;;5035496;28;20022;-67
2021/12/16 09:42:30;;;;;;;0.50;0.10;;;;;;;;;;5035019;28;20032;-67
2021/12/16 09:44:56;;;;;;;0.82;0.38;;;;;;;;;;5035085;28;20046;-67
2021/12/16 09:47:22;;;;;;;0.20;0.08;;;;;;;;;;5033429;28;20478;-67
2021/12/16 09:49:48;;;;;;;0.40;0.20;;;;;;;;;;5035187;28;20021;-68
2021/12/16 09:52:13;;;;;;;0.08;0.08;;;;;;;;;;5034031;28;20032;-68
2021/12/16 09:54:40;;;;;;;1.02;0.25;;;;;;;;;;5034906;28;20060;-68
2021/12/16 09:57:05;;;;;;;0.47;0.10;;;;;;;;;;5034970;28;20022;-68
2021/12/16 09:59:31;;;;;;;0.22;0.10;;;;;;;;;;5034876;28;20020;-67
2021/12/16 10:01:59;;;;;;;0.38;0.10;;;;;;;;;;5035048;28;20456;-68
2021/12/16 10:04:31;;;;;;;0.52;0.03;;;;;;;;;;5034619;28;20045;-68
2021/12/16 10:06:57;;;;;;;0.73;0.10;;;;;;;;;;5034947;28;20053;-67
2021/12/16 10:09:22;;;;;;;0.55;0.28;;;;;;;;;;5034781;28;20057;-68
2021/12/16 10:11:49;;;;;;;0.10;0.00;;;;;;;;;;5034808;28;20468;-68
2021/12/16 10:19:24;;;;;;;2.20;0.15;;;;;;;;;;5035068;28;20045;-67
2021/12/16 10:21:50;;;;;;;0.57;0.30;;;;;;;;;;5034547;28;20445;-67
2021/12/16 10:24:26;;;;;;;0.32;0.13;;;;;;;;;;5034416;28;20262;-67
2021/12/16 10:27:08;;;;;;;0.30;0.28;;;;;;;;;;5034465;28;20083;-67
2021/12/16 10:29:35;;;;;;;0.45;0.20;;;;;;;;;;5031682;28;20365;-67
2021/12/16 10:32:00;;;;;;;0.68;0.10;;;;;;;;;;5032662;28;20180;-68
2021/12/16 10:34:27;;;;;;;0.20;0.10;;;;;;;;;;5026117;28;20481;-67
2021/12/16 10:36:52;;;;;;;0.65;0.15;;;;;;;;;;5027893;28;20290;-68
2021/12/16 10:39:19;;;;;;;0.10;0.10;;;;;;;;;;5024884;28;20470;-68
2021/12/16 10:41:45;;;;;;;1.20;0.20;;;;;;;;;;5025297;28;20357;-68
2021/12/16 10:44:14;;;;;;;0.88;0.20;;;;;;;;;;5028541;28;20025;-68
2021/12/16 10:46:50;;;;;;;0.40;0.20;;;;;;;;;;5029791;28;20129;-68
2021/12/16 10:49:19;;;;;;;0.20;0.10;;;;;;;;;;5014031;28;20030;-67
2021/12/16 10:51:52;;;;;;;0.40;0.10;;;;;;;;;;5027354;28;20025;-68
2021/12/16 10:54:19;;;;;;;0.20;0.05;;;;;;;;;;5023482;28;20425;-67
2021/12/16 10:57:04;;;;;;;0.17;0.10;;;;;;;;;;5023904;28;20068;-68
2021/12/16 10:59:30;;;;;;;0.10;0.05;;;;;;;;;;5030721;28;20029;-68
2021/12/16 11:02:14;;;;;;;0.43;0.10;;;;;;;;;;5030197;28;20028;-69
2021/12/16 11:04:54;;;;;;;1.10;0.22;;;;;;;;;;5030107;28;20259;-67
2021/12/16 11:07:33;;;;;;;1.33;0.10;;;;;;;;;;5031692;28;20037;-68
2021/12/16 11:09:58;;;;;;;1.17;0.20;;;;;;;;;;5027923;28;20491;-67
2021/12/16 11:12:26;;;;;;;0.30;0.30;;;;;;;;;;5022102;28;20038;-67
2021/12/16 11:15:03;;;;;;;0.35;0.08;;;;;;;;;;5027579;28;20025;-67
2021/12/16 11:17:33;;;;;;;0.10;0.10;;;;;;;;;;5026936;28;20520;-68
2021/12/16 11:20:01;;;;;;;0.57;0.20;;;;;;;;;;5026187;28;20068;-68
2021/12/16 11:22:33;;;;;;;1.02;0.17;;;;;;;;;;5028270;28;20116;-68
2021/12/16 11:25:10;;;;;;;0.13;0.00;;;;;;;;;;5028293;28;20124;-68
2021/12/16 11:27:36;;;;;;;0.43;0.30;;;;;;;;;;5029190;28;20049;-66
2021/12/16 11:30:18;;;;;;;1.05;0.20;;;;;;;;;;5027869;28;20067;-68
2021/12/16 11:32:44;;;;;;;0.28;0.20;;;;;;;;;;5029275;28;20021;-67
2021/12/16 11:35:22;;;;;;;0.20;0.10;;;;;;;;;;5028940;28;20329;-67
2021/12/16 11:37:48;;;;;;;0.40;0.10;;;;;;;;;;5027974;28;20503;-67
2021/12/16 11:40:14;;;;;;;0.52;0.10;;;;;;;;;;5026644;28;20014;-68
2021/12/16 11:42:39;;;;;;;0.10;0.10;;;;;;;;;;5029501;28;20368;-69
2021/12/16 11:45:05;;;;;;;2.23;0.20;;;;;;;;;;5028942;28;20116;-66
2021/12/16 11:47:30;;;;;;;0.50;0.20;;;;;;;;;;5029256;28;20262;-68
2021/12/16 11:49:59;;;;;;;0.90;0.20;;;;;;;;;;5025669;28;20049;-68
2021/12/16 11:52:29;;;;;;;0.30;0.10;;;;;;;;;;5023516;28;20025;-68
2021/12/16 11:55:00;;;;;;;0.75;0.13;;;;;;;;;;5028342;28;20088;-68
2021/12/16 11:57:32;;;;;;;0.10;0.05;;;;;;;;;;5025317;28;20492;-68
2021/12/16 12:00:06;;;;;;;0.15;0.08;;;;;;;;;;5031534;28;20029;-68
2021/12/16 12:02:34;;;;;;;0.30;0.10;;;;;;;;;;5025026;28;20096;-68
2021/12/16 12:05:18;;;;;;;0.30;0.15;;;;;;;;;;5023653;28;20044;-68
2021/12/16 12:07:44;;;;;;;0.30;0.10;;;;;;;;;;5026995;28;20032;-67
2021/12/16 12:10:10;;;;;;;0.43;0.20;;;;;;;;;;5024925;28;20151;-66
2021/12/16 12:12:43;;;;;;;0.40;0.20;;;;;;;;;;5026832;28;20088;-68
2021/12/16 12:15:10;;;;;;;0.20;0.10;;;;;;;;;;5027051;28;20029;-68
2021/12/16 12:17:51;;;;;;;0.88;0.22;;;;;;;;;;5024941;28;20104;-68
2021/12/16 12:20:17;;;;;;;0.30;0.10;;;;;;;;;;5024217;28;20023;-68
2021/12/16 12:22:43;;;;;;;0.10;0.10;;;;;;;;;;5025514;28;20021;-68
2021/12/16 12:25:08;;;;;;;0.67;0.13;;;;;;;;;;5030519;28;20025;-68
2021/12/16 12:27:33;;;;;;;1.03;0.20;;;;;;;;;;5028997;28;20353;-67
2021/12/16 12:29:59;;;;;;;0.43;0.00;;;;;;;;;;5027337;28;20286;-68
2021/12/16 12:32:32;;;;;;;0.43;0.10;;;;;;;;;;5027519;28;20116;-68
2021/12/16 12:35:03;;;;;;;0.63;0.17;;;;;;;;;;5027055;28;20033;-68
2021/12/16 12:37:31;;;;;;;0.57;0.17;;;;;;;;;;5030176;28;20017;-68
2021/12/16 12:39:58;;;;;;;0.30;0.10;;;;;;;;;;5020978;28;20108;-68
2021/12/16 12:42:24;;;;;;;0.63;0.10;;;;;;;;;;5022894;28;20024;-68
2021/12/16 12:44:49;;;;;;;0.43;0.15;;;;;;;;;;5026421;28;20034;-68
2021/12/16 12:47:17;;;;;;;0.68;0.17;;;;;;;;;;5021932;28;20357;-68
2021/12/16 12:49:42;;;;;;;0.40;0.13;;;;;;;;;;5027910;28;20457;-68
2021/12/16 12:52:13;;;;;;;0.70;0.10;;;;;;;;;;5030393;28;20399;-69
2021/12/16 12:54:39;;;;;;;0.55;0.20;;;;;;;;;;5023249;28;20022;-68
2021/12/16 12:57:25;;;;;;;0.77;0.40;;;;;;;;;;5018537;28;20037;-67
2021/12/16 12:59:50;;;;;;;0.13;0.10;;;;;;;;;;5026343;28;20067;-67
2021/12/16 13:02:28;;;;;;;1.35;0.10;;;;;;;;;;5029282;28;20092;-68
2021/12/16 13:04:55;;;;;;;0.88;0.28;;;;;;;;;;5027930;28;20025;-68
2021/12/16 13:07:30;;;;;;;0.00;0.00;;;;;;;;;;5029323;28;20022;-68
2021/12/16 13:09:55;;;;;;;0.47;0.08;;;;;;;;;;5023800;28;20377;-68
2021/12/16 13:12:30;;;;;;;1.20;0.20;;;;;;;;;;5023027;28;20278;-68
2021/12/16 13:15:05;;;;;;;0.50;0.30;;;;;;;;;;5031701;28;20741;-69
2021/12/16 13:23:30;;;;;;;0.10;0.00;;;;;;;;;;4972793;28;20061;-68
2021/12/16 13:26:24;;;;;;;2.50;0.47;;;;;;;;;;4969119;28;20416;-67
2021/12/16 13:28:59;;;;;;;0.13;0.00;;;;;;;;;;4967530;28;20118;-67
2021/12/16 13:31:37;;;;;;;0.40;0.05;;;;;;;;;;4954614;28;20033;-69
2021/12/16 13:34:02;;;;;;;0.40;0.10;;;;;;;;;;4972221;28;20109;-67
2021/12/16 13:36:46;;;;;;;0.13;0.10;;;;;;;;;;4980288;28;20157;-67
2021/12/16 13:39:14;;;;;;;0.33;0.20;;;;;;;;;;4963926;28;20518;-68
2021/12/16 13:41:52;;;;;;;0.65;0.20;;;;;;;;;;4971326;28;20027;-68
2021/12/16 13:44:17;;;;;;;1.17;0.30;;;;;;;;;;4967460;28;20422;-67
2021/12/16 13:47:01;;;;;;;0.60;0.40;;;;;;;;;;4969756;28;20055;-68
2021/12/16 13:58:19;;;;;;;0.20;0.10;;;;;;;;;;5002269;28;20072;-69
2021/12/16 14:01:16;;;;;;;0.30;0.30;;;;;;;;;;5011966;28;20022;-68
2021/12/16 14:06:36;;;;;;;0.50;0.25;;;;;;;;;;4999239;28;20413;-68
2021/12/16 14:09:16;;;;;;;0.45;0.10;;;;;;;;;;5009095;28;20032;-68
2021/12/16 14:12:02;;;;;;;0.17;0.10;;;;;;;;;;5012986;28;20041;-68
2021/12/16 14:17:44;;;;;;;0.68;0.10;;;;;;;;;;5001961;28;20039;-68
2021/12/16 14:23:26;;;;;;;0.25;0.10;;;;;;;;;;5004966;28;20488;-68
2021/12/16 14:26:15;;;;;;;0.05;0.05;;;;;;;;;;5009994;28;20485;-67
2021/12/16 14:34:46;;;;;;;0.17;0.15;;;;;;;;;;5013072;28;20164;-67
2021/12/16 14:42:28;;;;;;;1.45;0.10;;;;;;;;;;5006475;28;20026;-68
2021/12/16 14:47:57;;;;;;;0.47;0.32;;;;;;;;;;5020116;28;20063;-68
2021/12/16 14:50:27;;;;;;;0.82;0.30;;;;;;;;;;5024598;28;20030;-68
2021/12/16 14:52:53;;;;;;;0.85;0.08;;;;;;;;;;5024287;28;20045;-68
2021/12/16 14:55:19;;;;;;;0.15;0.00;;;;;;;;;;5022963;28;20018;-68
2021/12/16 14:57:47;;;;;;;0.47;0.08;;;;;;;;;;5023170;28;20025;-68
2021/12/16 15:00:16;;;;;;;0.35;0.15;;;;;;;;;;5028380;28;20611;-68
2021/12/16 15:02:42;;;;;;;1.45;0.10;;;;;;;;;;5027668;28;20053;-67
2021/12/16 15:05:28;;;;;;;0.43;0.17;;;;;;;;;;5032480;28;20076;-68
2021/12/16 15:07:55;;;;;;;0.32;0.13;;;;;;;;;;5026076;28;20380;-68
2021/12/16 15:10:22;;;;;;;1.10;0.20;;;;;;;;;;5024420;28;20450;-68
2021/12/16 15:12:58;;;;;;;0.28;0.10;;;;;;;;;;5032252;28;20041;-68
2021/12/16 15:15:33;;;;;;;0.55;0.20;;;;;;;;;;5033403;28;20021;-67
2021/12/16 15:32:05;;;;;;;0.10;0.00;;;;;;;;;;5028722;28;20071;-68
2021/12/16 15:39:54;;;;;;;0.75;0.22;;;;;;;;;;5029978;28;20025;-68
2021/12/16 15:45:24;;;;;;;0.25;0.13;;;;;;;;;;5030076;28;20084;-68
2021/12/16 15:47:54;;;;;;;0.70;0.10;;;;;;;;;;5029921;28;20037;-68
2021/12/16 15:50:26;;;;;;;0.30;0.10;;;;;;;;;;5029837;28;20029;-68
2021/12/16 15:52:52;;;;;;;1.42;0.10;;;;;;;;;;5029881;28;20040;-68
2021/12/16 15:55:33;;;;;;;0.08;0.08;;;;;;;;;;5029909;28;20108;-67
2021/12/16 15:58:00;;;;;;;0.63;0.20;;;;;;;;;;5029792;28;20032;-67
2021/12/16 16:00:25;;;;;;;0.30;0.10;;;;;;;;;;5029451;28;20021;-68
2021/12/16 16:02:50;;;;;;;1.03;0.30;;;;;;;;;;5029873;28;20407;-68
2021/12/16 16:05:15;;;;;;;0.60;0.20;;;;;;;;;;5029814;28;20242;-68
2021/12/16 16:07:41;;;;;;;0.80;0.10;;;;;;;;;;5029406;28;20266;-67
2021/12/16 16:10:08;;;;;;;0.35;0.25;;;;;;;;;;5029572;28;20132;-67
2021/12/16 16:12:34;;;;;;;0.10;0.00;;;;;;;;;;5029291;28;20025;-68
2021/12/16 16:15:15;;;;;;;0.10;0.10;;;;;;;;;;5029638;28;20066;-68
2021/12/16 16:17:43;;;;;;;0.20;0.10;;;;;;;;;;5029314;28;20036;-68
2021/12/16 16:20:09;;;;;;;0.82;0.10;;;;;;;;;;5029371;28;20032;-68
2021/12/16 16:22:34;;;;;;;1.05;0.25;;;;;;;;;;5028922;28;20017;-67
2021/12/16 16:25:02;;;;;;;0.30;0.20;;;;;;;;;;5029483;28;20068;-67
2021/12/16 16:27:29;;;;;;;0.10;0.00;;;;;;;;;;5028871;28;20262;-67
2021/12/16 16:29:56;;;;;;;0.10;0.00;;;;;;;;;;5027846;28;20022;-68
2021/12/16 16:32:23;;;;;;;0.22;0.00;;;;;;;;;;5029193;28;20030;-67
2021/12/16 16:34:53;;;;;;;1.40;0.30;;;;;;;;;;5029224;28;20627;-67
2021/12/16 16:37:39;;;;;;;0.52;0.17;;;;;;;;;;5029292;28;20056;-66
2021/12/16 16:40:06;;;;;;;0.50;0.10;;;;;;;;;;5028192;28;20037;-67
2021/12/16 16:42:33;;;;;;;0.40;0.10;;;;;;;;;;5028841;28;20021;-67
2021/12/16 16:44:59;;;;;;;0.32;0.10;;;;;;;;;;5029028;28;20088;-67
2021/12/16 16:47:30;;;;;;;0.55;0.25;;;;;;;;;;5029042;28;20025;-67
2021/12/16 16:49:57;;;;;;;0.57;0.20;;;;;;;;;;5031806;28;20071;-67
2021/12/16 16:52:30;;;;;;;0.32;0.10;;;;;;;;;;5033090;28;20033;-67
2021/12/16 16:55:05;;;;;;;0.60;0.17;;;;;;;;;;5033202;28;20060;-67
2021/12/16 16:57:32;;;;;;;0.30;0.00;;;;;;;;;;5032754;28;20024;-67
2021/12/16 17:00:30;;;;;;;1.05;0.10;;;;;;;;;;5033240;28;20465;-68
2021/12/16 17:02:59;;;;;;;0.35;0.15;;;;;;;;;;4933068;29;20040;-68
2021/12/16 17:05:28;;;;;;;0.15;0.05;;;;;;;;;;4933037;29;20071;-67
2021/12/16 17:08:02;;;;;;;0.17;0.17;;;;;;;;;;4916980;29;20023;-67
2021/12/16 17:10:28;;;;;;;0.40;0.13;;;;;;;;;;4932784;29;20115;-67
2021/12/16 17:13:04;;;;;;;0.77;0.20;;;;;;;;;;4932763;29;20126;-68
2021/12/16 17:18:32;;;;;;;0.73;0.10;;;;;;;;;;4913522;29;20630;-67
2021/12/16 17:21:00;;;;;;;0.10;0.10;;;;;;;;;;4913685;29;20036;-67
2021/12/16 17:23:32;;;;;;;0.30;0.30;;;;;;;;;;4913706;29;20500;-67
2021/12/16 17:25:57;;;;;;;0.88;0.10;;;;;;;;;;4913722;29;20138;-68
2021/12/16 17:28:23;;;;;;;0.08;0.00;;;;;;;;;;4913526;29;20040;-67
2021/12/16 17:30:49;;;;;;;0.20;0.10;;;;;;;;;;4913515;29;20521;-67
2021/12/16 17:33:21;;;;;;;0.73;0.20;;;;;;;;;;4913655;29;20399;-67
2021/12/16 17:35:47;;;;;;;0.30;0.10;;;;;;;;;;4913094;29;20071;-67
2021/12/16 17:38:20;;;;;;;0.28;0.20;;;;;;;;;;4933996;28;20441;-67
2021/12/16 17:40:52;;;;;;;0.30;0.05;;;;;;;;;;4970632;28;20041;-67
2021/12/16 17:43:19;;;;;;;0.00;0.00;;;;;;;;;;4970921;28;20470;-68
2021/12/16 17:45:50;;;;;;;0.82;0.15;;;;;;;;;;4970619;28;20070;-68
2021/12/16 17:48:16;;;;;;;0.10;0.00;;;;;;;;;;4970680;28;20062;-68
2021/12/16 17:50:50;;;;;;;0.70;0.10;;;;;;;;;;4970346;28;20105;-68
2021/12/16 17:53:16;;;;;;;0.75;0.10;;;;;;;;;;4970692;28;20109;-68
2021/12/16 17:55:49;;;;;;;0.47;0.10;;;;;;;;;;5023192;28;20477;-67
2021/12/16 17:58:17;;;;;;;0.47;0.10;;;;;;;;;;5031973;28;20025;-67
2021/12/16 18:00:45;;;;;;;0.68;0.20;;;;;;;;;;5031649;28;20100;-68
2021/12/16 18:03:15;;;;;;;0.35;0.20;;;;;;;;;;5030258;28;20025;-67
2021/12/16 18:05:49;;;;;;;0.68;0.20;;;;;;;;;;5029086;28;20052;-67
2021/12/16 18:08:28;;;;;;;0.20;0.10;;;;;;;;;;5029268;28;20022;-67
2021/12/16 18:10:53;;;;;;;0.35;0.10;;;;;;;;;;5029151;28;20017;-68
2021/12/16 18:13:19;;;;;;;0.20;0.10;;;;;;;;;;5029426;28;20380;-68
2021/12/16 18:15:44;;;;;;;0.35;0.20;;;;;;;;;;5027190;28;20036;-68
2021/12/16 18:18:11;;;;;;;0.15;0.10;;;;;;;;;;5028968;28;20463;-67
2021/12/16 18:20:42;;;;;;;0.55;0.10;;;;;;;;;;5028127;28;20018;-68
2021/12/16 18:23:10;;;;;;;0.38;0.10;;;;;;;;;;5028328;28;20018;-67
2021/12/16 18:25:37;;;;;;;0.43;0.10;;;;;;;;;;5028968;28;20024;-67